Huvudsida
METAR-TAF:

METAR-TAF

Flygplatser :

Zadars flygplats

Zadar, Kroatien

latitud: 44-06N, longitud: 015-21E, höjd: 82 m

Aktuellt väderrapport

Denna rapport gjordes för 9 minuter sedan, klockan 14:00 UTC
Vind 7 kt från nordost, varierande mellan nord och ost/sydost
Temperatur 31°C
Fuktighet 38%
Tryck 1017 hPa
Sikt 10 km eller mer
Få moln på en höjd av 5000 ft

METAR: LDZD 241400Z 05007KT 350V110 9999 FEW050 31/15 Q1017 NOSIG

Tid: 16:09 (14:09 UTC)

Väderprognos

Denna rapport gjordes för 2 timmar och 44 minuter sedan, klockan 11:25 UTC
Prognos gäller från 24 kl. 12 UTC till 25 kl. 12 UTC
Vind 8 kt från nordost
Sikt 10 km eller mer
Få moln på en höjd av 5000 ft
Temporärt
från 24 kl. 12 UTC till 24 kl. 15 UTC
Vind 8 kt från nordväst
Temporärt
från 24 kl. 15 UTC till 25 kl. 12 UTC
Vind 12 kt från nordost

TAF: LDZD 241125Z 2412/2512 04008KT 9999 FEW050 TX31/2413Z TN19/2503Z TEMPO 2412/2415 32008KT TEMPO 2415/2512 04012KT

Aktuella väderrapporter och prognoser från 4000 flygplatser (METAR- och TAF-rapporter).

De tillgängliga stationerna syns som gula och röda prickar på kartan.

För musen över prickarna för att se namnen på stationerna.

Klicka sedan för att få väderrapporter och prognoser.

För att ändra kartan: Klicka på de gröna knapparna med ett svart kors på för att zooma in; den gröna knappen med ett streck på för att zooma ut; eller på de gröna pilarna för angränsande kartor.


METAR-TAF: